sensor_id;sensor_type;location;lat;lon;timestamp;P1;durP1;ratioP1;P2;durP2;ratioP2
24102;SDS011;12278;53.058;9.028;2023-01-16T00:03:39;1.63;;;1.43;;
24102;SDS011;12278;53.058;9.028;2023-01-16T00:07:40;1.73;;;1.60;;
24102;SDS011;12278;53.058;9.028;2023-01-16T00:11:40;3.10;;;1.60;;
24102;SDS011;12278;53.058;9.028;2023-01-16T00:15:48;1.57;;;1.30;;
24102;SDS011;12278;53.058;9.028;2023-01-16T00:19:50;3.73;;;1.80;;
24102;SDS011;12278;53.058;9.028;2023-01-16T00:23:52;1.97;;;1.73;;
24102;SDS011;12278;53.058;9.028;2023-01-16T00:27:55;3.40;;;1.73;;
24102;SDS011;12278;53.058;9.028;2023-01-16T00:31:55;1.43;;;1.30;;
24102;SDS011;12278;53.058;9.028;2023-01-16T00:35:56;3.23;;;1.87;;
24102;SDS011;12278;53.058;9.028;2023-01-16T00:39:56;4.03;;;1.47;;
24102;SDS011;12278;53.058;9.028;2023-01-16T00:43:57;2.03;;;1.63;;
24102;SDS011;12278;53.058;9.028;2023-01-16T00:47:58;1.40;;;1.30;;
24102;SDS011;12278;53.058;9.028;2023-01-16T00:51:59;1.83;;;1.73;;
24102;SDS011;12278;53.058;9.028;2023-01-16T00:56:05;2.80;;;1.50;;
24102;SDS011;12278;53.058;9.028;2023-01-16T01:00:06;2.03;;;1.70;;
24102;SDS011;12278;53.058;9.028;2023-01-16T01:04:08;4.17;;;1.97;;
24102;SDS011;12278;53.058;9.028;2023-01-16T01:08:08;3.23;;;2.00;;
24102;SDS011;12278;53.058;9.028;2023-01-16T01:12:10;2.47;;;2.00;;
24102;SDS011;12278;53.058;9.028;2023-01-16T01:16:11;5.40;;;2.10;;
24102;SDS011;12278;53.058;9.028;2023-01-16T01:20:12;1.50;;;1.40;;
24102;SDS011;12278;53.058;9.028;2023-01-16T01:24:12;2.87;;;1.60;;
24102;SDS011;12278;53.058;9.028;2023-01-16T01:28:14;3.37;;;1.60;;
24102;SDS011;12278;53.058;9.028;2023-01-16T01:32:15;1.70;;;1.60;;
24102;SDS011;12278;53.058;9.028;2023-01-16T01:36:16;3.30;;;1.97;;
24102;SDS011;12278;53.058;9.028;2023-01-16T01:40:16;1.43;;;1.30;;
24102;SDS011;12278;53.058;9.028;2023-01-16T01:49:06;5.10;;;2.20;;
24102;SDS011;12278;53.058;9.028;2023-01-16T01:53:15;3.87;;;1.63;;
24102;SDS011;12278;53.058;9.028;2023-01-16T01:57:25;1.73;;;1.60;;
24102;SDS011;12278;53.058;9.028;2023-01-16T02:01:37;4.90;;;1.93;;
24102;SDS011;12278;53.058;9.028;2023-01-16T02:05:39;7.13;;;2.03;;
24102;SDS011;12278;53.058;9.028;2023-01-16T02:09:50;2.90;;;1.90;;
24102;SDS011;12278;53.058;9.028;2023-01-16T02:14:02;3.43;;;1.97;;
24102;SDS011;12278;53.058;9.028;2023-01-16T02:18:10;5.67;;;1.93;;
24102;SDS011;12278;53.058;9.028;2023-01-16T02:22:43;4.40;;;2.00;;
24102;SDS011;12278;53.058;9.028;2023-01-16T02:35:24;4.40;;;2.23;;
24102;SDS011;12278;53.058;9.028;2023-01-16T02:43:58;5.73;;;2.30;;
24102;SDS011;12278;53.058;9.028;2023-01-16T02:56:41;7.03;;;1.60;;
24102;SDS011;12278;53.058;9.028;2023-01-16T03:00:53;5.90;;;1.30;;
24102;SDS011;12278;53.058;9.028;2023-01-16T03:04:56;3.50;;;1.27;;
24102;SDS011;12278;53.058;9.028;2023-01-16T03:18:27;4.47;;;1.40;;
24102;SDS011;12278;53.058;9.028;2023-01-16T03:22:41;2.77;;;1.37;;
24102;SDS011;12278;53.058;9.028;2023-01-16T03:26:56;2.73;;;1.50;;
24102;SDS011;12278;53.058;9.028;2023-01-16T03:35:17;5.77;;;1.73;;
24102;SDS011;12278;53.058;9.028;2023-01-16T03:39:26;3.30;;;1.20;;
24102;SDS011;12278;53.058;9.028;2023-01-16T03:43:32;3.40;;;1.70;;
24102;SDS011;12278;53.058;9.028;2023-01-16T03:47:39;2.57;;;1.37;;
24102;SDS011;12278;53.058;9.028;2023-01-16T03:51:48;3.80;;;1.57;;
24102;SDS011;12278;53.058;9.028;2023-01-16T03:55:54;1.40;;;1.20;;
24102;SDS011;12278;53.058;9.028;2023-01-16T04:00:00;4.07;;;1.33;;
24102;SDS011;12278;53.058;9.028;2023-01-16T04:04:04;3.33;;;1.37;;
24102;SDS011;12278;53.058;9.028;2023-01-16T04:08:31;3.03;;;1.10;;
24102;SDS011;12278;53.058;9.028;2023-01-16T04:12:35;2.00;;;1.30;;
24102;SDS011;12278;53.058;9.028;2023-01-16T04:16:49;0.70;;;0.70;;
24102;SDS011;12278;53.058;9.028;2023-01-16T04:20:51;2.07;;;1.40;;
24102;SDS011;12278;53.058;9.028;2023-01-16T04:24:52;2.70;;;1.33;;
24102;SDS011;12278;53.058;9.028;2023-01-16T04:28:55;3.43;;;1.90;;
24102;SDS011;12278;53.058;9.028;2023-01-16T04:32:56;4.07;;;1.27;;
24102;SDS011;12278;53.058;9.028;2023-01-16T04:37:17;2.23;;;1.40;;
24102;SDS011;12278;53.058;9.028;2023-01-16T04:41:18;1.27;;;1.13;;
24102;SDS011;12278;53.058;9.028;2023-01-16T04:45:37;2.27;;;1.23;;
24102;SDS011;12278;53.058;9.028;2023-01-16T04:49:39;2.47;;;1.40;;
24102;SDS011;12278;53.058;9.028;2023-01-16T04:53:39;2.67;;;1.23;;
24102;SDS011;12278;53.058;9.028;2023-01-16T04:57:40;3.80;;;1.40;;
24102;SDS011;12278;53.058;9.028;2023-01-16T05:01:41;2.43;;;0.97;;
24102;SDS011;12278;53.058;9.028;2023-01-16T05:05:48;3.00;;;1.13;;
24102;SDS011;12278;53.058;9.028;2023-01-16T05:09:50;1.70;;;1.43;;
24102;SDS011;12278;53.058;9.028;2023-01-16T05:13:52;2.80;;;1.03;;
24102;SDS011;12278;53.058;9.028;2023-01-16T05:17:53;3.00;;;1.60;;
24102;SDS011;12278;53.058;9.028;2023-01-16T05:21:54;3.00;;;1.80;;
24102;SDS011;12278;53.058;9.028;2023-01-16T05:25:54;4.30;;;1.27;;
24102;SDS011;12278;53.058;9.028;2023-01-16T05:29:55;2.93;;;1.30;;
24102;SDS011;12278;53.058;9.028;2023-01-16T05:33:56;5.23;;;3.57;;
24102;SDS011;12278;53.058;9.028;2023-01-16T05:37:56;13.17;;;11.43;;
24102;SDS011;12278;53.058;9.028;2023-01-16T05:41:57;10.07;;;9.10;;
24102;SDS011;12278;53.058;9.028;2023-01-16T05:45:58;5.33;;;4.37;;
24102;SDS011;12278;53.058;9.028;2023-01-16T05:50:02;10.13;;;9.20;;
24102;SDS011;12278;53.058;9.028;2023-01-16T05:54:03;11.80;;;5.10;;
24102;SDS011;12278;53.058;9.028;2023-01-16T05:58:03;7.70;;;7.03;;
24102;SDS011;12278;53.058;9.028;2023-01-16T06:02:04;5.60;;;5.03;;
24102;SDS011;12278;53.058;9.028;2023-01-16T06:06:05;8.73;;;7.93;;
24102;SDS011;12278;53.058;9.028;2023-01-16T06:10:06;9.43;;;8.40;;
24102;SDS011;12278;53.058;9.028;2023-01-16T06:14:07;7.63;;;6.93;;
24102;SDS011;12278;53.058;9.028;2023-01-16T06:18:07;3.20;;;2.53;;
24102;SDS011;12278;53.058;9.028;2023-01-16T06:22:08;3.07;;;2.10;;
24102;SDS011;12278;53.058;9.028;2023-01-16T06:26:09;2.30;;;0.97;;
24102;SDS011;12278;53.058;9.028;2023-01-16T06:30:09;2.83;;;1.23;;
24102;SDS011;12278;53.058;9.028;2023-01-16T06:34:10;3.70;;;1.63;;
24102;SDS011;12278;53.058;9.028;2023-01-16T06:38:11;1.37;;;1.27;;
24102;SDS011;12278;53.058;9.028;2023-01-16T06:42:12;14.53;;;9.93;;
24102;SDS011;12278;53.058;9.028;2023-01-16T06:46:12;13.23;;;12.13;;
24102;SDS011;12278;53.058;9.028;2023-01-16T06:50:13;6.07;;;5.47;;
24102;SDS011;12278;53.058;9.028;2023-01-16T06:54:14;1.60;;;1.50;;
24102;SDS011;12278;53.058;9.028;2023-01-16T06:58:14;10.53;;;8.77;;
24102;SDS011;12278;53.058;9.028;2023-01-16T07:02:15;2.33;;;2.00;;
24102;SDS011;12278;53.058;9.028;2023-01-16T07:06:15;22.33;;;15.77;;
24102;SDS011;12278;53.058;9.028;2023-01-16T07:10:16;38.07;;;23.27;;
24102;SDS011;12278;53.058;9.028;2023-01-16T07:14:18;26.07;;;17.67;;
24102;SDS011;12278;53.058;9.028;2023-01-16T07:18:37;78.40;;;50.50;;
24102;SDS011;12278;53.058;9.028;2023-01-16T07:23:20;20.07;;;15.43;;
24102;SDS011;12278;53.058;9.028;2023-01-16T07:27:26;12.00;;;10.10;;
24102;SDS011;12278;53.058;9.028;2023-01-16T07:31:27;12.20;;;11.00;;
24102;SDS011;12278;53.058;9.028;2023-01-16T07:35:29;10.77;;;9.80;;
24102;SDS011;12278;53.058;9.028;2023-01-16T07:39:30;8.37;;;7.57;;
24102;SDS011;12278;53.058;9.028;2023-01-16T07:43:30;8.20;;;7.40;;
24102;SDS011;12278;53.058;9.028;2023-01-16T07:47:32;13.90;;;12.60;;
24102;SDS011;12278;53.058;9.028;2023-01-16T07:51:33;6.33;;;5.77;;
24102;SDS011;12278;53.058;9.028;2023-01-16T07:55:34;9.90;;;8.17;;
24102;SDS011;12278;53.058;9.028;2023-01-16T07:59:35;1.80;;;1.33;;
24102;SDS011;12278;53.058;9.028;2023-01-16T08:03:35;6.70;;;6.10;;
24102;SDS011;12278;53.058;9.028;2023-01-16T08:07:37;2.33;;;2.03;;
24102;SDS011;12278;53.058;9.028;2023-01-16T08:11:37;3.67;;;2.07;;
24102;SDS011;12278;53.058;9.028;2023-01-16T08:15:38;1.33;;;1.23;;
24102;SDS011;12278;53.058;9.028;2023-01-16T08:19:40;4.07;;;1.73;;
24102;SDS011;12278;53.058;9.028;2023-01-16T08:23:41;3.37;;;3.07;;
24102;SDS011;12278;53.058;9.028;2023-01-16T08:27:42;1.40;;;1.30;;
24102;SDS011;12278;53.058;9.028;2023-01-16T08:31:43;1.47;;;1.37;;
24102;SDS011;12278;53.058;9.028;2023-01-16T08:35:44;2.20;;;1.10;;
24102;SDS011;12278;53.058;9.028;2023-01-16T08:39:44;1.87;;;1.17;;
24102;SDS011;12278;53.058;9.028;2023-01-16T08:43:45;1.97;;;0.87;;
24102;SDS011;12278;53.058;9.028;2023-01-16T08:48:04;2.80;;;1.17;;
24102;SDS011;12278;53.058;9.028;2023-01-16T08:52:26;1.10;;;1.00;;
24102;SDS011;12278;53.058;9.028;2023-01-16T08:56:30;2.33;;;0.90;;
24102;SDS011;12278;53.058;9.028;2023-01-16T09:00:30;0.90;;;0.80;;
24102;SDS011;12278;53.058;9.028;2023-01-16T09:04:31;1.60;;;1.17;;
24102;SDS011;12278;53.058;9.028;2023-01-16T09:08:34;1.03;;;0.97;;
24102;SDS011;12278;53.058;9.028;2023-01-16T09:12:35;1.03;;;0.90;;
24102;SDS011;12278;53.058;9.028;2023-01-16T09:16:54;1.20;;;1.00;;
24102;SDS011;12278;53.058;9.028;2023-01-16T09:20:55;1.83;;;1.03;;
24102;SDS011;12278;53.058;9.028;2023-01-16T09:24:56;2.23;;;1.10;;
24102;SDS011;12278;53.058;9.028;2023-01-16T09:28:56;1.13;;;1.00;;
24102;SDS011;12278;53.058;9.028;2023-01-16T09:32:57;3.17;;;1.30;;
24102;SDS011;12278;53.058;9.028;2023-01-16T09:36:58;2.70;;;1.10;;
24102;SDS011;12278;53.058;9.028;2023-01-16T09:40:59;1.63;;;1.30;;
24102;SDS011;12278;53.058;9.028;2023-01-16T09:45:04;1.93;;;1.00;;
24102;SDS011;12278;53.058;9.028;2023-01-16T09:49:14;2.73;;;1.33;;
24102;SDS011;12278;53.058;9.028;2023-01-16T09:53:28;2.33;;;1.23;;
24102;SDS011;12278;53.058;9.028;2023-01-16T09:57:53;1.53;;;1.43;;
24102;SDS011;12278;53.058;9.028;2023-01-16T10:06:29;2.93;;;1.27;;
24102;SDS011;12278;53.058;9.028;2023-01-16T10:10:41;1.40;;;1.30;;
24102;SDS011;12278;53.058;9.028;2023-01-16T10:32:00;1.37;;;1.00;;
24102;SDS011;12278;53.058;9.028;2023-01-16T10:36:08;0.97;;;0.93;;
24102;SDS011;12278;53.058;9.028;2023-01-16T10:40:14;2.93;;;1.70;;
24102;SDS011;12278;53.058;9.028;2023-01-16T10:48:45;1.67;;;1.17;;
24102;SDS011;12278;53.058;9.028;2023-01-16T10:53:04;3.23;;;1.33;;
24102;SDS011;12278;53.058;9.028;2023-01-16T10:57:14;1.37;;;0.97;;
24102;SDS011;12278;53.058;9.028;2023-01-16T11:01:17;2.33;;;1.47;;
24102;SDS011;12278;53.058;9.028;2023-01-16T11:09:30;2.83;;;1.13;;
24102;SDS011;12278;53.058;9.028;2023-01-16T11:13:31;4.43;;;1.30;;
24102;SDS011;12278;53.058;9.028;2023-01-16T11:17:51;2.93;;;1.33;;
24102;SDS011;12278;53.058;9.028;2023-01-16T11:22:21;1.03;;;0.90;;
24102;SDS011;12278;53.058;9.028;2023-01-16T11:26:25;3.77;;;1.07;;
24102;SDS011;12278;53.058;9.028;2023-01-16T11:30:28;2.90;;;0.87;;
24102;SDS011;12278;53.058;9.028;2023-01-16T11:34:33;1.67;;;1.07;;
24102;SDS011;12278;53.058;9.028;2023-01-16T11:38:37;2.17;;;1.37;;
24102;SDS011;12278;53.058;9.028;2023-01-16T11:42:56;2.37;;;1.50;;
24102;SDS011;12278;53.058;9.028;2023-01-16T11:47:18;1.37;;;1.10;;
24102;SDS011;12278;53.058;9.028;2023-01-16T11:51:24;3.33;;;1.37;;
24102;SDS011;12278;53.058;9.028;2023-01-16T11:55:32;4.20;;;1.40;;
24102;SDS011;12278;53.058;9.028;2023-01-16T12:04:18;3.13;;;1.57;;
24102;SDS011;12278;53.058;9.028;2023-01-16T12:12:39;3.80;;;1.20;;
24102;SDS011;12278;53.058;9.028;2023-01-16T12:17:22;2.03;;;0.97;;
24102;SDS011;12278;53.058;9.028;2023-01-16T12:21:39;1.80;;;1.20;;
24102;SDS011;12278;53.058;9.028;2023-01-16T12:43:03;1.43;;;1.00;;
24102;SDS011;12278;53.058;9.028;2023-01-16T13:05:17;4.40;;;1.60;;
24102;SDS011;12278;53.058;9.028;2023-01-16T13:13:35;2.27;;;0.93;;
24102;SDS011;12278;53.058;9.028;2023-01-16T13:17:51;1.43;;;0.63;;
24102;SDS011;12278;53.058;9.028;2023-01-16T13:21:59;3.43;;;1.10;;
24102;SDS011;12278;53.058;9.028;2023-01-16T13:26:10;1.13;;;0.90;;
24102;SDS011;12278;53.058;9.028;2023-01-16T13:30:15;1.17;;;0.90;;
24102;SDS011;12278;53.058;9.028;2023-01-16T13:34:20;1.70;;;0.87;;
24102;SDS011;12278;53.058;9.028;2023-01-16T13:38:37;1.13;;;0.90;;
24102;SDS011;12278;53.058;9.028;2023-01-16T13:43:08;3.10;;;1.03;;
24102;SDS011;12278;53.058;9.028;2023-01-16T13:47:35;3.00;;;1.00;;
24102;SDS011;12278;53.058;9.028;2023-01-16T13:51:42;1.93;;;0.90;;
24102;SDS011;12278;53.058;9.028;2023-01-16T13:55:44;3.33;;;1.00;;
24102;SDS011;12278;53.058;9.028;2023-01-16T13:59:53;1.60;;;0.90;;
24102;SDS011;12278;53.058;9.028;2023-01-16T14:12:44;2.80;;;1.13;;
24102;SDS011;12278;53.058;9.028;2023-01-16T14:18:00;2.87;;;1.40;;
24102;SDS011;12278;53.058;9.028;2023-01-16T14:21:50;1.07;;;0.50;;
24102;SDS011;12278;53.058;9.028;2023-01-16T14:26:07;3.17;;;0.90;;
24102;SDS011;12278;53.058;9.028;2023-01-16T14:30:17;3.23;;;0.97;;
24102;SDS011;12278;53.058;9.028;2023-01-16T14:34:21;2.63;;;0.77;;
24102;SDS011;12278;53.058;9.028;2023-01-16T14:38:26;5.33;;;2.20;;
24102;SDS011;12278;53.058;9.028;2023-01-16T14:42:31;2.40;;;1.27;;
24102;SDS011;12278;53.058;9.028;2023-01-16T14:47:05;2.13;;;1.07;;
24102;SDS011;12278;53.058;9.028;2023-01-16T14:51:53;1.03;;;0.93;;
24102;SDS011;12278;53.058;9.028;2023-01-16T14:56:22;3.07;;;0.97;;
24102;SDS011;12278;53.058;9.028;2023-01-16T15:00:26;3.50;;;0.80;;
24102;SDS011;12278;53.058;9.028;2023-01-16T15:04:40;1.30;;;0.90;;
24102;SDS011;12278;53.058;9.028;2023-01-16T15:08:47;1.00;;;0.90;;
24102;SDS011;12278;53.058;9.028;2023-01-16T15:12:48;0.77;;;0.50;;
24102;SDS011;12278;53.058;9.028;2023-01-16T15:16:48;0.80;;;0.80;;
24102;SDS011;12278;53.058;9.028;2023-01-16T15:21:15;1.97;;;1.13;;
24102;SDS011;12278;53.058;9.028;2023-01-16T15:30:04;0.80;;;0.80;;
24102;SDS011;12278;53.058;9.028;2023-01-16T15:38:14;0.47;;;0.47;;
24102;SDS011;12278;53.058;9.028;2023-01-16T15:54:46;0.83;;;0.83;;
24102;SDS011;12278;53.058;9.028;2023-01-16T15:58:46;2.33;;;0.70;;
24102;SDS011;12278;53.058;9.028;2023-01-16T16:02:48;1.43;;;0.57;;
24102;SDS011;12278;53.058;9.028;2023-01-16T16:06:48;1.43;;;0.70;;
24102;SDS011;12278;53.058;9.028;2023-01-16T16:10:54;1.10;;;0.60;;
24102;SDS011;12278;53.058;9.028;2023-01-16T16:15:16;1.80;;;1.70;;
24102;SDS011;12278;53.058;9.028;2023-01-16T16:19:38;2.73;;;0.67;;
24102;SDS011;12278;53.058;9.028;2023-01-16T16:23:39;1.33;;;0.80;;
24102;SDS011;12278;53.058;9.028;2023-01-16T16:27:40;1.37;;;1.00;;
24102;SDS011;12278;53.058;9.028;2023-01-16T16:31:42;1.83;;;0.70;;
24102;SDS011;12278;53.058;9.028;2023-01-16T16:35:48;1.60;;;1.17;;
24102;SDS011;12278;53.058;9.028;2023-01-16T16:39:57;0.67;;;0.60;;
24102;SDS011;12278;53.058;9.028;2023-01-16T16:44:33;0.60;;;0.50;;
24102;SDS011;12278;53.058;9.028;2023-01-16T16:48:38;1.17;;;0.83;;
24102;SDS011;12278;53.058;9.028;2023-01-16T16:52:45;3.07;;;1.03;;
24102;SDS011;12278;53.058;9.028;2023-01-16T16:56:54;1.37;;;0.83;;
24102;SDS011;12278;53.058;9.028;2023-01-16T17:00:57;1.67;;;0.90;;
24102;SDS011;12278;53.058;9.028;2023-01-16T17:04:58;0.90;;;0.90;;
24102;SDS011;12278;53.058;9.028;2023-01-16T17:08:58;1.13;;;0.80;;
24102;SDS011;12278;53.058;9.028;2023-01-16T17:12:59;2.07;;;0.77;;
24102;SDS011;12278;53.058;9.028;2023-01-16T17:17:00;1.23;;;0.87;;
24102;SDS011;12278;53.058;9.028;2023-01-16T17:21:00;0.87;;;0.87;;
24102;SDS011;12278;53.058;9.028;2023-01-16T17:25:01;1.97;;;1.03;;
24102;SDS011;12278;53.058;9.028;2023-01-16T17:29:02;1.90;;;1.23;;
24102;SDS011;12278;53.058;9.028;2023-01-16T17:37:11;0.77;;;0.73;;
24102;SDS011;12278;53.058;9.028;2023-01-16T17:41:15;1.20;;;1.10;;
24102;SDS011;12278;53.058;9.028;2023-01-16T17:45:44;1.43;;;1.00;;
24102;SDS011;12278;53.058;9.028;2023-01-16T17:50:12;1.10;;;1.00;;
24102;SDS011;12278;53.058;9.028;2023-01-16T17:54:21;1.27;;;0.80;;
24102;SDS011;12278;53.058;9.028;2023-01-16T17:58:41;0.73;;;0.73;;
24102;SDS011;12278;53.058;9.028;2023-01-16T18:02:45;1.00;;;1.00;;
24102;SDS011;12278;53.058;9.028;2023-01-16T18:06:47;1.60;;;1.50;;
24102;SDS011;12278;53.058;9.028;2023-01-16T18:10:48;1.63;;;1.17;;
24102;SDS011;12278;53.058;9.028;2023-01-16T18:14:49;2.20;;;1.37;;
24102;SDS011;12278;53.058;9.028;2023-01-16T18:19:08;2.27;;;1.10;;
24102;SDS011;12278;53.058;9.028;2023-01-16T18:23:09;1.03;;;1.00;;
24102;SDS011;12278;53.058;9.028;2023-01-16T18:27:13;0.73;;;0.73;;
24102;SDS011;12278;53.058;9.028;2023-01-16T18:31:16;1.10;;;1.00;;
24102;SDS011;12278;53.058;9.028;2023-01-16T18:35:17;1.63;;;1.00;;
24102;SDS011;12278;53.058;9.028;2023-01-16T18:39:18;1.13;;;0.90;;
24102;SDS011;12278;53.058;9.028;2023-01-16T18:43:37;1.73;;;1.03;;
24102;SDS011;12278;53.058;9.028;2023-01-16T18:47:56;2.27;;;0.80;;
24102;SDS011;12278;53.058;9.028;2023-01-16T18:52:18;1.40;;;1.20;;
24102;SDS011;12278;53.058;9.028;2023-01-16T18:56:38;1.40;;;0.97;;
24102;SDS011;12278;53.058;9.028;2023-01-16T19:01:00;0.70;;;0.63;;
24102;SDS011;12278;53.058;9.028;2023-01-16T19:05:19;1.17;;;1.07;;
24102;SDS011;12278;53.058;9.028;2023-01-16T19:09:20;2.30;;;0.70;;
24102;SDS011;12278;53.058;9.028;2023-01-16T19:13:21;1.10;;;1.00;;
24102;SDS011;12278;53.058;9.028;2023-01-16T19:17:36;0.90;;;0.90;;
24102;SDS011;12278;53.058;9.028;2023-01-16T19:21:37;1.00;;;0.90;;
24102;SDS011;12278;53.058;9.028;2023-01-16T19:25:40;1.23;;;1.13;;
24102;SDS011;12278;53.058;9.028;2023-01-16T19:29:40;0.90;;;0.90;;
24102;SDS011;12278;53.058;9.028;2023-01-16T19:33:47;1.40;;;1.03;;
24102;SDS011;12278;53.058;9.028;2023-01-16T19:37:48;0.93;;;0.93;;
24102;SDS011;12278;53.058;9.028;2023-01-16T19:41:49;0.80;;;0.80;;
24102;SDS011;12278;53.058;9.028;2023-01-16T19:46:08;1.17;;;1.07;;
24102;SDS011;12278;53.058;9.028;2023-01-16T19:50:27;0.60;;;0.60;;
24102;SDS011;12278;53.058;9.028;2023-01-16T19:54:29;1.00;;;0.90;;
24102;SDS011;12278;53.058;9.028;2023-01-16T19:58:30;1.30;;;1.20;;
24102;SDS011;12278;53.058;9.028;2023-01-16T20:02:31;0.73;;;0.73;;
24102;SDS011;12278;53.058;9.028;2023-01-16T20:06:33;1.23;;;1.13;;
24102;SDS011;12278;53.058;9.028;2023-01-16T20:10:34;0.90;;;0.70;;
24102;SDS011;12278;53.058;9.028;2023-01-16T20:14:34;1.00;;;1.00;;
24102;SDS011;12278;53.058;9.028;2023-01-16T20:18:35;1.43;;;1.03;;
24102;SDS011;12278;53.058;9.028;2023-01-16T20:22:39;1.07;;;1.00;;
24102;SDS011;12278;53.058;9.028;2023-01-16T20:26:44;1.33;;;1.23;;
24102;SDS011;12278;53.058;9.028;2023-01-16T20:30:46;0.80;;;0.77;;
24102;SDS011;12278;53.058;9.028;2023-01-16T20:34:48;1.33;;;1.23;;
24102;SDS011;12278;53.058;9.028;2023-01-16T20:38:48;2.60;;;1.10;;
24102;SDS011;12278;53.058;9.028;2023-01-16T20:42:49;1.50;;;1.40;;
24102;SDS011;12278;53.058;9.028;2023-01-16T20:47:09;1.70;;;0.80;;
24102;SDS011;12278;53.058;9.028;2023-01-16T20:51:12;1.30;;;1.20;;
24102;SDS011;12278;53.058;9.028;2023-01-16T20:55:13;1.90;;;1.20;;
24102;SDS011;12278;53.058;9.028;2023-01-16T20:59:15;1.27;;;1.17;;
24102;SDS011;12278;53.058;9.028;2023-01-16T21:03:15;1.77;;;1.67;;
24102;SDS011;12278;53.058;9.028;2023-01-16T21:07:16;1.47;;;1.37;;
24102;SDS011;12278;53.058;9.028;2023-01-16T21:11:18;1.53;;;1.40;;
24102;SDS011;12278;53.058;9.028;2023-01-16T21:19:43;1.43;;;1.33;;
24102;SDS011;12278;53.058;9.028;2023-01-16T21:24:02;1.70;;;1.37;;
24102;SDS011;12278;53.058;9.028;2023-01-16T21:28:03;3.13;;;1.47;;
24102;SDS011;12278;53.058;9.028;2023-01-16T21:32:05;1.73;;;1.57;;
24102;SDS011;12278;53.058;9.028;2023-01-16T21:36:09;1.03;;;1.03;;
24102;SDS011;12278;53.058;9.028;2023-01-16T21:40:11;4.80;;;1.60;;
24102;SDS011;12278;53.058;9.028;2023-01-16T21:44:13;1.50;;;1.40;;
24102;SDS011;12278;53.058;9.028;2023-01-16T21:48:32;1.70;;;1.60;;
24102;SDS011;12278;53.058;9.028;2023-01-16T21:52:33;1.60;;;1.50;;
24102;SDS011;12278;53.058;9.028;2023-01-16T21:56:34;3.13;;;1.90;;
24102;SDS011;12278;53.058;9.028;2023-01-16T22:00:35;1.67;;;1.57;;
24102;SDS011;12278;53.058;9.028;2023-01-16T22:04:37;3.63;;;2.10;;
24102;SDS011;12278;53.058;9.028;2023-01-16T22:08:38;1.90;;;1.80;;
24102;SDS011;12278;53.058;9.028;2023-01-16T22:12:40;2.50;;;1.70;;
24102;SDS011;12278;53.058;9.028;2023-01-16T22:17:10;2.40;;;1.77;;
24102;SDS011;12278;53.058;9.028;2023-01-16T22:21:31;2.23;;;1.60;;
24102;SDS011;12278;53.058;9.028;2023-01-16T22:25:32;2.07;;;1.70;;
24102;SDS011;12278;53.058;9.028;2023-01-16T22:29:33;3.43;;;1.93;;
24102;SDS011;12278;53.058;9.028;2023-01-16T22:33:34;1.83;;;1.60;;
24102;SDS011;12278;53.058;9.028;2023-01-16T22:37:34;1.67;;;1.57;;
24102;SDS011;12278;53.058;9.028;2023-01-16T22:41:35;4.20;;;2.10;;
24102;SDS011;12278;53.058;9.028;2023-01-16T22:45:36;2.40;;;1.80;;
24102;SDS011;12278;53.058;9.028;2023-01-16T22:49:56;2.10;;;1.90;;
24102;SDS011;12278;53.058;9.028;2023-01-16T22:53:57;2.03;;;1.90;;
24102;SDS011;12278;53.058;9.028;2023-01-16T22:57:58;2.80;;;1.50;;
24102;SDS011;12278;53.058;9.028;2023-01-16T23:01:58;1.97;;;1.83;;
24102;SDS011;12278;53.058;9.028;2023-01-16T23:05:59;1.90;;;1.80;;
24102;SDS011;12278;53.058;9.028;2023-01-16T23:09:59;1.63;;;1.53;;
24102;SDS011;12278;53.058;9.028;2023-01-16T23:14:04;2.00;;;1.90;;
24102;SDS011;12278;53.058;9.028;2023-01-16T23:18:07;1.50;;;1.40;;
24102;SDS011;12278;53.058;9.028;2023-01-16T23:22:08;2.03;;;1.90;;
24102;SDS011;12278;53.058;9.028;2023-01-16T23:26:09;1.80;;;1.70;;
24102;SDS011;12278;53.058;9.028;2023-01-16T23:30:11;1.90;;;1.80;;
24102;SDS011;12278;53.058;9.028;2023-01-16T23:34:13;2.30;;;2.10;;
24102;SDS011;12278;53.058;9.028;2023-01-16T23:38:16;2.47;;;2.23;;
24102;SDS011;12278;53.058;9.028;2023-01-16T23:42:16;1.90;;;1.80;;
24102;SDS011;12278;53.058;9.028;2023-01-16T23:46:39;3.00;;;2.10;;
24102;SDS011;12278;53.058;9.028;2023-01-16T23:50:41;2.67;;;2.47;;
24102;SDS011;12278;53.058;9.028;2023-01-16T23:54:41;3.20;;;2.90;;
24102;SDS011;12278;53.058;9.028;2023-01-16T23:58:42;4.13;;;2.53;;
